Time;durP1;ratioP1;P1;durP2;ratioP2;P2;SDS_P1;SDS_P2;PMS_P1;PMS_P2;Temp;Humidity;BMP_temperature;BMP_pressure;BME280_temperature;BME280_humidity;BME280_pressure;Samples;Min_cycle;Max_cycle;Signal;HPM_P1;HPM_P2
2022/06/24 00:00:35;;;;;;;328.92;172.43;;;;;;;13.67;100.00;100095.25;1700816;83;21125;-87
2022/06/24 00:03:02;;;;;;;284.18;150.68;;;;;;;13.64;100.00;100092.45;1706348;84;21058;-87
2022/06/24 00:05:30;;;;;;;266.42;143.05;;;;;;;13.61;100.00;100101.92;1709165;82;21073;-86
2022/06/24 00:07:59;;;;;;;242.53;125.18;;;;;;;13.61;100.00;100108.92;1709255;83;21616;-87
2022/06/24 00:10:36;;;;;;;189.65;96.00;;;;;;;13.58;100.00;100097.47;1709192;83;21019;-86
2022/06/24 00:13:06;;;;;;;123.35;65.65;;;;;;;13.52;100.00;100102.30;1709048;83;21232;-86
2022/06/24 00:15:36;;;;;;;89.03;48.55;;;;;;;13.49;100.00;100103.08;1709309;84;20995;-86
2022/06/24 00:18:16;;;;;;;77.67;41.70;;;;;;;13.47;100.00;100108.47;1709209;84;20967;-86
2022/06/24 00:20:48;;;;;;;74.17;40.08;;;;;;;13.47;100.00;100108.94;1687716;85;21129;-86
2022/06/24 00:23:21;;;;;;;83.62;40.17;;;;;;;13.44;100.00;100106.13;1706588;82;21453;-87
2022/06/24 00:25:50;;;;;;;102.67;47.23;;;;;;;13.43;100.00;100106.28;1709583;84;21153;-86
2022/06/24 00:28:18;;;;;;;86.97;43.90;;;;;;;13.41;100.00;100113.79;1707216;83;21844;-87
2022/06/24 00:30:53;;;;;;;92.72;47.27;;;;;;;13.39;100.00;100110.98;1633139;87;21017;-86
2022/06/24 00:33:24;;;;;;;110.25;55.75;;;;;;;13.38;100.00;100113.23;1698604;83;21046;-87
2022/06/24 00:35:58;;;;;;;119.05;63.10;;;;;;;13.41;100.00;100111.17;1709508;84;21015;-86
2022/06/24 00:38:30;;;;;;;128.10;70.97;;;;;;;13.47;100.00;100110.24;1709675;84;21097;-86
2022/06/24 00:41:07;;;;;;;;;;;;;;;13.53;100.00;100110.98;1712212;84;21086;-86
2022/06/24 00:43:41;;;;;;;125.02;70.32;;;;;;;13.59;100.00;100107.77;1709855;84;20145;-87
2022/06/24 00:46:26;;;;;;;123.85;70.95;;;;;;;13.64;100.00;100103.41;1709874;84;21041;-86
2022/06/24 00:48:58;;;;;;;117.85;70.20;;;;;;;13.69;100.00;100095.93;1709579;84;21018;-86
2022/06/24 00:51:36;;;;;;;113.83;65.78;;;;;;;13.75;100.00;100089.28;1710072;84;21074;-86
2022/06/24 00:54:10;;;;;;;107.07;63.87;;;;;;;13.81;100.00;100092.14;1709545;84;21608;-87
2022/06/24 00:56:37;;;;;;;115.70;66.20;;;;;;;13.88;100.00;100091.03;1709688;84;20975;-86
2022/06/24 00:59:08;;;;;;;111.05;64.17;;;;;;;13.94;100.00;100087.00;1709611;84;21442;-86
2022/06/24 01:01:37;;;;;;;;;;;;;;;13.97;100.00;100079.67;1712150;84;21473;-86
2022/06/24 01:04:07;;;;;;;99.25;56.18;;;;;;;14.02;100.00;100077.41;1709800;84;21786;-87
2022/06/24 01:06:39;;;;;;;91.20;52.40;;;;;;;14.06;100.00;100079.73;1709812;84;21022;-87
2022/06/24 01:09:09;;;;;;;85.85;48.90;;;;;;;14.07;100.00;100077.46;1709763;84;21051;-86
2022/06/24 01:11:40;;;;;;;;;;;;;;;14.07;100.00;100077.46;1712566;84;20967;-86
2022/06/24 01:14:07;;;;;;;67.87;40.80;;;;;;;14.07;100.00;100084.01;1709683;84;20498;-86
2022/06/24 01:16:36;;;;;;;60.17;38.13;;;;;;;14.04;100.00;100075.97;1709621;84;39050;-86
2022/06/24 01:19:10;;;;;;;57.98;35.03;;;;;;;14.03;100.00;100067.78;1709523;84;21698;-86
2022/06/24 01:21:47;;;;;;;61.40;36.03;;;;;;;14.04;100.00;100074.67;1709329;84;21129;-88
2022/06/24 01:24:19;;;;;;;48.35;31.82;;;;;;;14.05;100.00;100086.78;1709503;84;21070;-86
2022/06/24 01:26:51;;;;;;;53.42;33.10;;;;;;;14.04;100.00;100085.14;1709670;84;21027;-86
2022/06/24 01:29:20;;;;;;;60.40;33.75;;;;;;;14.03;100.00;100086.91;1707795;83;21162;-87
2022/06/24 01:31:48;;;;;;;72.60;36.40;;;;;;;14.01;100.00;100088.05;1709322;84;21049;-86
2022/06/24 01:34:21;;;;;;;66.35;38.25;;;;;;;13.98;100.00;100090.48;1701390;84;21046;-87
2022/06/24 01:36:50;;;;;;;67.50;41.55;;;;;;;13.95;100.00;100099.93;1698656;83;20999;-86
2022/06/24 01:39:17;;;;;;;73.55;45.40;;;;;;;13.92;100.00;100094.17;1698642;83;21035;-86
2022/06/24 01:41:45;;;;;;;75.47;46.00;;;;;;;13.90;100.00;100093.53;1698604;84;21232;-86
2022/06/24 01:44:12;;;;;;;75.45;45.92;;;;;;;13.87;100.00;100094.16;1698652;83;21023;-86
2022/06/24 01:46:39;;;;;;;82.05;48.10;;;;;;;13.84;100.00;100093.13;1699106;83;21008;-86
2022/06/24 01:49:07;;;;;;;82.12;47.90;;;;;;;13.82;100.00;100100.80;1698727;83;21470;-86
2022/06/24 01:51:37;;;;;;;85.65;48.00;;;;;;;13.79;100.00;100101.92;1698890;83;21031;-86
2022/06/24 01:54:04;;;;;;;84.22;47.25;;;;;;;13.76;100.00;100098.28;1698571;84;21156;-86
2022/06/24 01:56:31;;;;;;;84.62;47.17;;;;;;;13.75;100.00;100102.37;1698838;83;21603;-86
2022/06/24 01:59:01;;;;;;;86.67;41.00;;;;;;;13.73;100.00;100102.53;1698806;84;21085;-86
2022/06/24 02:01:28;;;;;;;64.58;35.50;;;;;;;13.71;100.00;100101.84;1698667;84;21161;-86
2022/06/24 02:03:55;;;;;;;55.73;32.67;;;;;;;13.67;100.00;100114.41;1698663;84;21130;-86
2022/06/24 02:06:24;;;;;;;47.40;28.32;;;;;;;13.65;100.00;100116.33;1698677;83;21968;-88
2022/06/24 02:08:53;;;;;;;51.83;26.60;;;;;;;13.66;100.00;100118.48;1698631;84;21034;-86
2022/06/24 02:14:11;;;;;;;37.28;23.47;;;;;;;13.69;100.00;100111.16;1698705;83;21070;-87
2022/06/24 02:16:39;;;;;;;43.40;22.75;;;;;;;13.70;100.00;100111.97;1698952;83;21516;-86
2022/06/24 02:19:08;;;;;;;37.55;20.15;;;;;;;13.69;100.00;100107.70;1698706;84;21178;-86
2022/06/24 02:21:36;;;;;;;30.45;15.75;;;;;;;13.72;100.00;100113.96;1698364;83;21446;-86
2022/06/24 02:24:05;;;;;;;21.55;13.85;;;;;;;13.74;100.00;100110.69;1698640;84;20984;-86
2022/06/24 02:26:32;;;;;;;22.77;14.07;;;;;;;13.79;100.00;100107.63;1699076;83;21050;-86
2022/06/24 02:29:00;;;;;;;18.55;11.95;;;;;;;13.83;100.00;100111.11;1698664;84;21087;-87
2022/06/24 02:31:27;;;;;;;17.75;11.90;;;;;;;13.87;100.00;100114.25;1698857;83;21144;-87
2022/06/24 02:33:54;;;;;;;19.55;11.85;;;;;;;13.92;100.00;100116.42;1698767;83;20963;-86
2022/06/24 02:36:21;;;;;;;18.10;11.90;;;;;;;13.96;100.00;100108.63;1698951;84;21050;-86
2022/06/24 02:38:48;;;;;;;18.98;12.40;;;;;;;13.99;100.00;100114.84;1698969;83;21047;-88
2022/06/24 02:41:15;;;;;;;19.75;12.37;;;;;;;13.98;100.00;100110.61;1698719;83;21553;-86
2022/06/24 02:43:42;;;;;;;26.82;18.02;;;;;;;13.96;100.00;100115.98;1698611;83;21149;-86
2022/06/24 02:46:13;;;;;;;67.32;36.55;;;;;;;13.96;100.00;100115.17;1699064;83;21015;-86
2022/06/24 02:48:43;;;;;;;105.20;53.13;;;;;;;13.95;100.00;100106.97;1698850;83;21042;-87
2022/06/24 02:51:13;;;;;;;121.07;62.90;;;;;;;13.96;100.00;100108.63;1698989;83;21777;-87
2022/06/24 02:53:42;;;;;;;128.80;68.37;;;;;;;13.96;100.00;100113.36;1698926;84;20995;-88
2022/06/24 02:56:13;;;;;;;109.95;60.88;;;;;;;13.97;100.00;100121.55;1698684;84;21171;-87
2022/06/24 02:58:41;;;;;;;106.47;58.33;;;;;;;13.92;100.00;100126.89;1698811;84;22125;-87
2022/06/24 03:01:10;;;;;;;98.55;53.38;;;;;;;13.79;100.00;100122.86;1699014;83;21070;-87
2022/06/24 03:03:37;;;;;;;92.15;49.77;;;;;;;13.73;100.00;100125.58;1698582;84;21616;-87
2022/06/24 03:06:05;;;;;;;80.90;44.70;;;;;;;13.75;100.00;100121.49;1699111;83;21094;-87
2022/06/24 03:08:33;;;;;;;88.90;47.13;;;;;;;13.81;100.00;100133.17;1698657;83;21825;-87
2022/06/24 03:11:00;;;;;;;78.00;43.52;;;;;;;13.82;100.00;100123.85;1698860;83;21027;-87
2022/06/24 03:13:28;;;;;;;72.27;40.67;;;;;;;13.82;100.00;100124.35;1698815;84;21114;-87
2022/06/24 03:15:55;;;;;;;59.30;36.77;;;;;;;13.83;100.00;100126.00;1699048;84;21031;-87
2022/06/24 03:18:24;;;;;;;58.90;36.85;;;;;;;13.81;100.00;100126.16;1698866;83;20967;-87
2022/06/24 03:20:51;;;;;;;57.40;35.08;;;;;;;13.86;100.00;100120.48;1698960;84;21849;-87
2022/06/24 03:23:19;;;;;;;48.42;32.73;;;;;;;13.95;100.00;100123.98;1698692;84;21022;-87
2022/06/24 03:25:46;;;;;;;48.70;30.90;;;;;;;14.04;100.00;100124.41;1698841;83;21525;-87
2022/06/24 03:28:14;;;;;;;44.53;27.62;;;;;;;14.13;100.00;100124.81;1698804;84;21008;-87
2022/06/24 03:30:42;;;;;;;38.55;24.57;;;;;;;14.21;100.00;100125.36;1699253;83;20995;-87
2022/06/24 03:33:09;;;;;;;29.27;22.27;;;;;;;14.29;100.00;100130.66;1698984;84;21766;-86
2022/06/24 03:35:36;;;;;;;25.85;20.20;;;;;;;14.41;100.00;100143.03;1698529;83;21410;-86
2022/06/24 03:38:03;;;;;;;22.45;17.77;;;;;;;14.55;100.00;100149.52;1699146;84;21509;-87
2022/06/24 03:40:30;;;;;;;22.62;17.10;;;;;;;14.71;100.00;100150.14;1698834;83;21059;-86
2022/06/24 03:42:57;;;;;;;18.90;15.90;;;;;;;14.87;100.00;100152.53;1698987;83;21989;-86
2022/06/24 03:45:25;;;;;;;20.82;15.83;;;;;;;15.00;100.00;100154.27;1698864;83;21150;-86
2022/06/24 03:47:52;;;;;;;20.90;14.93;;;;;;;15.13;100.00;100152.53;1698882;83;21090;-87
2022/06/24 03:50:19;;;;;;;17.65;15.50;;;;;;;15.20;100.00;100152.23;1698744;83;21120;-86
2022/06/24 03:52:46;;;;;;;15.18;13.25;;;;;;;15.25;100.00;100159.13;1698734;83;21066;-87
2022/06/24 03:55:14;;;;;;;14.80;12.58;;;;;;;15.34;100.00;100160.01;1699246;84;21122;-86
2022/06/24 03:57:41;;;;;;;12.88;11.57;;;;;;;15.46;100.00;100152.17;1704793;83;21164;-87
2022/06/24 04:00:09;;;;;;;11.65;10.55;;;;;;;15.62;100.00;100146.64;1716787;82;21579;-88
2022/06/24 04:02:40;;;;;;;11.78;10.32;;;;;;;15.78;100.00;100151.12;1716301;82;21045;-86
2022/06/24 04:05:09;;;;;;;13.00;9.90;;;;;;;15.89;100.00;100147.41;1716465;83;21056;-86
2022/06/24 04:07:37;;;;;;;11.15;10.05;;;;;;;15.99;100.00;100142.80;1716638;82;21437;-86
2022/06/24 04:10:04;;;;;;;13.13;10.35;;;;;;;16.08;100.00;100143.14;1716980;83;21128;-87
2022/06/24 04:12:33;;;;;;;12.25;10.95;;;;;;;16.18;100.00;100144.80;1716518;82;21049;-86
2022/06/24 04:15:17;;;;;;;12.28;11.12;;;;;;;16.26;100.00;100145.30;1716524;82;21054;-86
2022/06/24 04:17:46;;;;;;;12.07;10.68;;;;;;;16.31;100.00;100143.80;1716629;82;20983;-87
2022/06/24 04:20:18;;;;;;;12.03;10.90;;;;;;;16.40;100.00;100136.25;1716385;82;21561;-87
2022/06/24 04:22:45;;;;;;;12.85;11.55;;;;;;;16.50;100.00;100141.83;1716668;83;21758;-86
2022/06/24 04:25:12;;;;;;;13.85;12.35;;;;;;;16.58;100.00;100153.65;1716531;82;21051;-86
2022/06/24 04:27:41;;;;;;;12.53;11.30;;;;;;;16.68;100.00;100151.67;1716588;83;21034;-87
2022/06/24 04:30:11;;;;;;;14.20;12.68;;;;;;;16.75;100.00;100148.38;1716348;82;21073;-86
2022/06/24 04:32:39;;;;;;;13.05;11.63;;;;;;;16.86;100.00;100150.66;1716732;82;21058;-86
2022/06/24 04:35:08;;;;;;;14.45;12.95;;;;;;;17.02;100.00;100145.36;1710642;82;21909;-86
2022/06/24 04:37:38;;;;;;;14.05;12.65;;;;;;;17.15;100.00;100151.91;1707126;84;21528;-87
2022/06/24 04:40:08;;;;;;;14.40;12.50;;;;;;;17.25;100.00;100153.86;1707352;84;21011;-86
2022/06/24 04:42:36;;;;;;;13.73;12.33;;;;;;;17.37;100.00;100158.73;1707063;84;21073;-87
2022/06/24 04:45:06;;;;;;;13.65;12.33;;;;;;;17.48;100.00;100159.17;1675388;85;21555;-86
2022/06/24 04:47:33;;;;;;;14.25;12.33;;;;;;;17.58;100.00;100156.83;1665244;86;21104;-86
2022/06/24 04:50:01;;;;;;;13.80;12.40;;;;;;;17.62;100.00;100162.89;1675524;84;21018;-86
2022/06/24 04:52:29;;;;;;;15.28;13.72;;;;;;;17.58;100.00;100168.67;1682372;84;21087;-86
2022/06/24 04:54:56;;;;;;;16.45;14.78;;;;;;;17.48;100.00;100175.47;1683756;84;21035;-87
2022/06/24 04:57:23;;;;;;;16.23;13.62;;;;;;;17.39;100.00;100175.18;1683086;84;21063;-86
2022/06/24 04:59:50;;;;;;;17.25;14.33;;;;;;;17.34;100.00;100167.31;1735393;82;21130;-87
2022/06/24 05:02:17;;;;;;;15.95;14.03;;;;;;;17.35;100.00;100163.66;1734052;82;21482;-86
2022/06/24 05:04:45;;;;;;;21.42;16.23;;;;;;;17.38;100.00;100165.64;1734356;81;20967;-86
2022/06/24 05:07:12;;;;;;;20.20;17.05;;;;;;;17.43;100.00;100162.83;1734125;82;20999;-86
2022/06/24 05:09:42;;;;;;;17.62;15.88;;;;;;;17.57;100.00;100155.19;1734266;81;21555;-85
2022/06/24 05:12:10;;;;;;;19.48;17.30;;;;;;;17.69;100.00;100151.66;1734339;81;21198;-85
2022/06/24 05:14:37;;;;;;;27.07;18.12;;;;;;;17.82;100.00;100155.89;1720962;80;21039;-88
2022/06/24 05:17:04;;;;;;;21.45;17.27;;;;;;;17.97;100.00;100166.02;1753368;81;21050;-87
2022/06/24 05:19:31;;;;;;;20.32;18.23;;;;;;;18.12;100.00;100167.89;1746857;80;21055;-87
2022/06/24 05:21:59;;;;;;;21.73;18.82;;;;;;;18.22;100.00;100163.70;1741149;80;21077;-88
2022/06/24 05:24:26;;;;;;;19.80;17.70;;;;;;;18.25;100.00;100163.35;1736182;82;21118;-87
2022/06/24 05:26:53;;;;;;;22.22;17.95;;;;;;;18.29;100.00;100154.92;1740277;81;21539;-88
2022/06/24 05:29:20;;;;;;;22.17;18.67;;;;;;;18.37;100.00;100155.84;1734593;82;20995;-89
2022/06/24 05:31:47;;;;;;;19.30;17.35;;;;;;;18.41;100.00;100157.11;1739532;82;20998;-87
2022/06/24 05:34:16;;;;;;;19.45;16.75;;;;;;;18.45;100.00;100155.27;1735777;82;21484;-88
2022/06/24 05:36:43;;;;;;;23.77;18.67;;;;;;;18.49;100.00;100164.95;1713743;82;21249;-87
2022/06/24 05:39:10;;;;;;;18.77;16.55;;;;;;;18.50;100.00;100163.95;1714093;83;21074;-87
2022/06/24 05:41:41;;;;;;;24.15;17.85;;;;;;;18.45;100.00;100167.64;1713876;83;21596;-92
2022/06/24 05:44:10;;;;;;;19.32;17.23;;;;;;;18.29;100.00;100168.58;1712273;82;21125;-87
2022/06/24 05:46:40;;;;;;;19.98;17.23;;;;;;;18.11;100.00;100167.56;1714039;82;21599;-87
2022/06/24 05:49:07;;;;;;;19.85;15.88;;;;;;;18.01;100.00;100166.97;1713800;83;21813;-88
2022/06/24 05:51:36;;;;;;;19.23;17.17;;;;;;;17.93;100.00;100162.05;1713719;83;21070;-87
2022/06/24 05:56:49;;;;;;;18.48;16.45;;;;;;;17.77;100.00;100169.57;1713808;83;21038;-87
2022/06/24 05:59:17;;;;;;;18.45;16.62;;;;;;;17.71;100.00;100179.45;1714040;82;21493;-87
2022/06/24 06:01:49;;;;;;;17.57;15.75;;;;;;;17.67;100.00;100187.39;1713698;83;21168;-86
2022/06/24 06:04:17;;;;;;;17.87;16.02;;;;;;;17.63;100.00;100196.13;1713923;83;20944;-87
2022/06/24 06:06:48;;;;;;;17.35;15.58;;;;;;;17.61;100.00;100194.67;1713925;83;21015;-87
2022/06/24 06:09:15;;;;;;;17.80;15.37;;;;;;;17.63;100.00;100192.66;1714550;83;21500;-87
2022/06/24 06:11:52;;;;;;;16.37;14.75;;;;;;;17.69;100.00;100196.42;1714392;83;21648;-87
2022/06/24 06:14:22;;;;;;;17.87;16.00;;;;;;;17.72;100.00;100203.98;1714052;82;21219;-88
2022/06/24 06:16:49;;;;;;;15.48;13.88;;;;;;;17.76;100.00;100197.38;1719291;83;21022;-87
2022/06/24 06:19:17;;;;;;;16.45;14.65;;;;;;;17.74;100.00;100190.97;1719537;82;21109;-86
2022/06/24 06:21:46;;;;;;;18.48;15.00;;;;;;;17.72;100.00;100192.14;1719417;82;21023;-87
2022/06/24 06:24:13;;;;;;;16.45;14.90;;;;;;;17.70;100.00;100181.79;1719450;83;20994;-88
2022/06/24 06:26:40;;;;;;;17.82;15.45;;;;;;;17.72;100.00;100175.02;1719454;83;21188;-88
2022/06/24 06:29:07;;;;;;;15.93;14.38;;;;;;;17.75;100.00;100173.34;1719680;83;21529;-86
2022/06/24 06:31:35;;;;;;;16.35;14.85;;;;;;;17.78;100.00;100172.53;1719917;83;21038;-87
2022/06/24 06:34:02;;;;;;;16.55;14.80;;;;;;;17.87;100.00;100169.34;1719738;83;21007;-87
2022/06/24 06:36:30;;;;;;;16.67;14.73;;;;;;;17.94;100.00;100179.50;1719829;83;21014;-86
2022/06/24 06:38:57;;;;;;;20.60;16.75;;;;;;;18.03;100.00;100186.06;1719517;83;21128;-87
2022/06/24 06:41:24;;;;;;;19.27;16.45;;;;;;;18.10;100.00;100184.37;1719638;83;21453;-87
2022/06/24 06:43:51;;;;;;;17.27;15.63;;;;;;;18.16;100.00;100174.44;1719639;83;21050;-87
2022/06/24 06:46:18;;;;;;;16.60;15.00;;;;;;;18.21;100.00;100173.91;1719660;83;21050;-87
2022/06/24 06:48:45;;;;;;;17.10;15.40;;;;;;;18.27;100.00;100168.77;1719896;83;20955;-87
2022/06/24 06:51:13;;;;;;;17.65;15.85;;;;;;;18.37;100.00;100165.07;1719287;83;21129;-87
2022/06/24 06:53:40;;;;;;;15.50;14.03;;;;;;;18.46;100.00;100158.73;1719959;83;21010;-87
2022/06/24 06:56:07;;;;;;;17.07;15.25;;;;;;;18.57;100.00;100172.79;1694099;83;20971;-88
2022/06/24 06:58:34;;;;;;;14.20;12.80;;;;;;;18.69;100.00;100174.49;1715251;83;21031;-87
2022/06/24 07:01:01;;;;;;;14.23;12.93;;;;;;;18.80;100.00;100176.37;1717469;83;21010;-88
2022/06/24 07:03:29;;;;;;;16.00;14.25;;;;;;;18.89;100.00;100177.94;1716726;82;21125;-89
2022/06/24 07:05:55;;;;;;;17.55;15.05;;;;;;;18.94;100.00;100174.80;1704067;82;21551;-88
2022/06/24 07:08:23;;;;;;;15.75;13.55;;;;;;;18.99;100.00;100173.73;1664489;85;21030;-87
2022/06/24 07:10:50;;;;;;;14.50;13.20;;;;;;;19.02;100.00;100181.30;1699454;83;21078;-88
2022/06/24 07:13:19;;;;;;;14.85;13.35;;;;;;;19.02;100.00;100179.47;1721856;83;21552;-89
2022/06/24 07:15:47;;;;;;;15.03;13.40;;;;;;;19.03;100.00;100185.06;1717692;82;21114;-91
2022/06/24 07:18:14;;;;;;;16.02;13.98;;;;;;;19.10;100.00;100181.22;1743400;82;21062;-87
2022/06/24 07:21:18;;;;;;;15.35;13.53;;;;;;;19.16;100.00;100179.64;1745523;82;21018;-90
2022/06/24 07:23:49;;;;;;;18.73;15.98;;;;;;;19.17;100.00;100182.61;1743675;82;21558;-89
2022/06/24 07:26:17;;;;;;;16.42;14.73;;;;;;;19.19;100.00;100180.61;1744935;81;21061;-91
2022/06/24 07:29:14;;;;;;;14.73;13.32;;;;;;;19.33;100.00;100180.29;1745406;82;21756;-89
2022/06/24 07:31:41;;;;;;;13.98;12.55;;;;;;;19.48;100.00;100182.89;1744852;81;21051;-88
2022/06/24 07:34:12;;;;;;;15.10;13.50;;;;;;;19.61;100.00;100177.79;1744926;81;21065;-89
2022/06/24 07:36:39;;;;;;;14.70;13.20;;;;;;;19.70;100.00;100177.16;1745098;82;21010;-89
2022/06/24 07:39:07;;;;;;;14.25;12.75;;;;;;;19.77;100.00;100163.53;1741191;82;21461;-88
2022/06/24 07:41:35;;;;;;;13.60;12.28;;;;;;;19.93;100.00;100165.16;1738566;82;21159;-88
2022/06/24 07:59:50;;;;;;;11.20;10.10;;;;;;;20.93;100.00;100131.27;1744891;81;21213;-88
2022/06/24 08:06:45;;;;;;;11.28;10.08;;;;;;;21.14;100.00;100121.09;1744738;81;21057;-89
2022/06/24 08:16:08;;;;;;;12.75;10.00;;;;;;;22.01;100.00;100125.82;1720992;81;20999;-88
2022/06/24 08:33:46;;;;;;;10.28;9.00;;;;;;;21.53;100.00;100098.90;1709374;83;21220;-88
2022/06/24 08:36:19;;;;;;;9.43;8.53;;;;;;;21.34;100.00;100101.31;1723910;83;20997;-88
2022/06/24 08:38:47;;;;;;;10.13;9.23;;;;;;;21.22;100.00;100102.39;1694250;84;21029;-89
2022/06/24 08:41:22;;;;;;;9.45;8.65;;;;;;;21.21;100.00;100106.54;1707963;83;21082;-89
2022/06/24 08:43:52;;;;;;;9.33;8.43;;;;;;;21.21;100.00;100105.22;1717341;81;21019;-87
2022/06/24 08:46:19;;;;;;;9.95;9.00;;;;;;;21.30;100.00;100096.09;1719580;82;21127;-88
2022/06/24 08:48:58;;;;;;;10.75;9.58;;;;;;;21.52;100.00;100097.27;1727752;83;20991;-89
2022/06/24 08:51:30;;;;;;;9.58;8.70;;;;;;;21.65;100.00;100088.06;1702276;83;21042;-89
2022/06/24 08:54:00;;;;;;;10.50;9.50;;;;;;;21.79;100.00;100084.10;1713768;83;21019;-90
2022/06/24 08:56:27;;;;;;;9.28;8.38;;;;;;;21.86;100.00;100073.00;1725594;83;21069;-89
2022/06/24 08:58:58;;;;;;;9.50;8.60;;;;;;;21.89;100.00;100059.35;1729733;82;21096;-89
2022/06/24 09:01:25;;;;;;;11.15;9.03;;;;;;;21.87;100.00;100054.75;1728761;83;21565;-89
2022/06/24 09:03:53;;;;;;;9.78;8.80;;;;;;;21.88;100.00;100046.59;1723342;82;21058;-90
2022/06/24 09:06:20;;;;;;;9.80;8.80;;;;;;;21.95;100.00;100048.45;1722826;82;20995;-89
2022/06/24 09:08:53;;;;;;;8.68;7.78;;;;;;;22.02;100.00;100047.41;1696839;83;21558;-89
2022/06/24 09:11:22;;;;;;;9.40;8.50;;;;;;;22.12;100.00;100044.86;1681831;83;21050;-89
2022/06/24 09:13:55;;;;;;;9.88;8.88;;;;;;;22.15;100.00;100053.22;1747099;81;21489;-91
2022/06/24 09:16:51;;;;;;;9.83;8.75;;;;;;;22.15;100.00;100054.55;1752679;81;21019;-89
2022/06/24 09:19:19;;;;;;;8.88;8.08;;;;;;;22.12;100.00;100054.94;1752898;81;21104;-90
2022/06/24 09:21:58;;;;;;;9.08;8.18;;;;;;;22.14;100.00;100065.36;1753133;81;21083;-90
2022/06/24 09:25:03;;;;;;;9.03;7.95;;;;;;;22.11;100.00;100060.46;1745477;81;21083;-91
2022/06/24 09:27:31;;;;;;;8.33;7.55;;;;;;;22.03;100.00;100067.60;1744117;81;21014;-89
2022/06/24 09:29:59;;;;;;;10.38;8.28;;;;;;;21.92;100.00;100060.25;1741635;81;21002;-89
2022/06/24 09:32:26;;;;;;;7.70;7.10;;;;;;;21.85;100.00;100064.24;1755215;81;21046;-90
2022/06/24 09:35:08;;;;;;;9.25;8.45;;;;;;;21.87;100.00;100070.66;1751669;81;21060;-88
2022/06/24 09:37:41;;;;;;;9.43;7.80;;;;;;;21.90;100.00;100080.86;1759542;81;21157;-90
2022/06/24 09:40:29;;;;;;;9.73;8.93;;;;;;;21.96;100.00;100085.34;1762363;81;21060;-89
2022/06/24 09:43:06;;;;;;;10.18;8.08;;;;;;;21.94;100.00;100086.05;1763410;81;21085;-89
2022/06/24 09:45:52;;;;;;;7.75;7.15;;;;;;;21.89;100.00;100096.45;1763168;81;22040;-90
2022/06/24 09:48:34;;;;;;;9.05;8.25;;;;;;;21.88;100.00;100102.24;1762701;80;20996;-88
2022/06/24 09:51:08;;;;;;;9.18;8.30;;;;;;;21.87;100.00;100099.81;1744667;82;21178;-88
2022/06/24 09:53:40;;;;;;;10.28;8.80;;;;;;;21.85;100.00;100099.19;1763479;81;20995;-89
2022/06/24 09:56:10;;;;;;;10.28;9.20;;;;;;;21.85;100.00;100093.89;1757778;80;21041;-89
2022/06/24 09:58:41;;;;;;;9.83;8.93;;;;;;;21.83;100.00;100088.00;1751360;81;20978;-89
2022/06/24 10:01:08;;;;;;;5.60;4.83;;;;;;;21.70;100.00;100104.17;1762666;79;21069;-88
2022/06/24 10:03:39;;;;;;;4.50;4.10;;;;;;;21.38;100.00;100089.81;1738673;81;21772;-88
2022/06/24 10:06:11;;;;;;;5.20;4.80;;;;;;;20.95;100.00;100093.53;1773564;79;20935;-88
2022/06/24 10:08:42;;;;;;;5.53;5.03;;;;;;;20.64;100.00;100089.44;1802760;79;21081;-88
2022/06/24 10:11:14;;;;;;;6.75;6.10;;;;;;;20.41;100.00;100110.35;1792974;79;21026;-89
2022/06/24 10:13:41;;;;;;;7.33;6.70;;;;;;;20.26;100.00;100107.82;1733614;81;22021;-88
2022/06/24 10:16:08;;;;;;;7.78;6.92;;;;;;;20.18;100.00;100109.28;1746978;81;21148;-90
2022/06/24 10:18:43;;;;;;;8.80;8.00;;;;;;;20.11;100.00;100102.61;1716343;83;20969;-87
2022/06/24 10:21:12;;;;;;;8.83;7.97;;;;;;;20.05;100.00;100094.13;1718007;81;20992;-89
2022/06/24 10:23:52;;;;;;;8.38;7.67;;;;;;;20.02;100.00;100095.81;1743540;81;21050;-88
2022/06/24 10:26:34;;;;;;;7.92;7.25;;;;;;;20.00;100.00;100095.18;1729084;82;21015;-89
2022/06/24 10:29:08;;;;;;;8.78;8.08;;;;;;;20.06;100.00;100097.58;1742950;82;21164;-89
2022/06/24 10:31:49;;;;;;;9.03;8.28;;;;;;;20.13;100.00;100090.03;1733564;82;21046;-89
2022/06/24 10:34:34;;;;;;;9.18;8.38;;;;;;;20.17;100.00;100088.63;1742905;81;21018;-89
2022/06/24 10:37:21;;;;;;;9.60;8.68;;;;;;;20.18;100.00;100078.88;1718467;82;21887;-90
2022/06/24 10:39:52;;;;;;;8.90;7.83;;;;;;;20.11;100.00;100068.77;1721837;82;21017;-88
2022/06/24 10:42:22;;;;;;;8.73;7.87;;;;;;;19.92;100.00;100076.81;1726909;82;21558;-89
2022/06/24 10:45:05;;;;;;;8.95;8.15;;;;;;;19.77;100.00;100085.61;1713174;82;21057;-88
2022/06/24 10:47:41;;;;;;;9.43;8.55;;;;;;;19.69;100.00;100093.66;1719623;82;21049;-91
2022/06/24 10:50:13;;;;;;;10.45;9.48;;;;;;;19.69;100.00;100109.50;1743046;82;20983;-89
2022/06/24 10:52:51;;;;;;;11.55;10.53;;;;;;;19.69;100.00;100114.78;1743151;82;21130;-89
2022/06/24 10:55:28;;;;;;;11.35;10.35;;;;;;;19.65;100.00;100117.50;1739463;82;21176;-89
2022/06/24 10:58:11;;;;;;;13.08;11.88;;;;;;;19.58;100.00;100119.25;1720104;82;21087;-88
2022/06/24 11:00:48;;;;;;;12.65;11.45;;;;;;;19.51;100.00;100137.13;1743873;82;21525;-88
2022/06/24 11:03:43;;;;;;;12.50;11.38;;;;;;;19.46;100.00;100147.45;1738885;82;20998;-89
2022/06/24 11:06:11;;;;;;;12.93;11.73;;;;;;;19.43;100.00;100153.08;1720549;82;21002;-88
2022/06/24 11:08:47;;;;;;;12.68;11.43;;;;;;;19.39;100.00;100152.63;1743629;82;21176;-88
2022/06/24 11:11:29;;;;;;;12.55;11.35;;;;;;;19.32;100.00;100155.70;1744073;82;21005;-88
2022/06/24 11:14:02;;;;;;;13.53;12.05;;;;;;;19.22;100.00;100166.55;1742942;82;21614;-87
2022/06/24 11:16:29;;;;;;;12.82;11.73;;;;;;;19.13;100.00;100157.08;1712620;82;21081;-88
2022/06/24 11:18:59;;;;;;;12.90;11.65;;;;;;;19.08;100.00;100165.55;1749540;82;21104;-88
2022/06/24 11:21:26;;;;;;;12.00;10.98;;;;;;;19.06;100.00;100168.05;1749400;82;21760;-88
2022/06/24 11:24:00;;;;;;;11.12;10.13;;;;;;;19.01;100.00;100162.00;1743287;82;21028;-87
2022/06/24 11:26:27;;;;;;;9.73;8.83;;;;;;;18.96;100.00;100171.45;1736833;82;21092;-88
2022/06/24 11:28:55;;;;;;;9.05;8.28;;;;;;;18.88;100.00;100169.19;1726274;82;21066;-88
2022/06/24 11:31:42;;;;;;;9.60;6.80;;;;;;;18.78;100.00;100169.14;1718944;83;21128;-89
2022/06/24 11:34:13;;;;;;;7.67;6.80;;;;;;;18.71;100.00;100169.86;1693488;83;21154;-88
2022/06/24 11:36:45;;;;;;;6.28;5.78;;;;;;;18.68;100.00;100181.27;1716225;83;21057;-87
2022/06/24 11:42:47;;;;;;;4.87;4.47;;;;;;;18.66;100.00;100184.58;1698110;83;21019;-88
2022/06/24 11:45:45;;;;;;;6.70;5.40;;;;;;;18.65;100.00;100182.45;1724191;82;21017;-87
2022/06/24 11:48:22;;;;;;;5.00;4.60;;;;;;;18.67;100.00;100178.31;1733857;81;21383;-88
2022/06/24 11:50:52;;;;;;;5.03;4.53;;;;;;;18.64;100.00;100172.06;1708757;82;21038;-88
2022/06/24 11:53:24;;;;;;;4.62;4.28;;;;;;;18.58;100.00;100166.52;1736849;82;21062;-88
2022/06/24 11:55:54;;;;;;;4.70;4.30;;;;;;;18.55;100.00;100182.69;1737735;82;20997;-88
2022/06/24 11:58:22;;;;;;;4.25;3.95;;;;;;;18.48;100.00;100181.77;1740898;82;21097;-87
2022/06/24 12:00:53;;;;;;;4.92;4.17;;;;;;;18.44;100.00;100183.94;1734392;81;21537;-88
2022/06/24 12:03:22;;;;;;;4.12;3.72;;;;;;;18.44;100.00;100185.25;1750795;81;21059;-88
2022/06/24 12:05:50;;;;;;;4.65;4.25;;;;;;;18.41;100.00;100192.70;1754265;81;21068;-91
2022/06/24 12:08:18;;;;;;;4.05;3.72;;;;;;;18.38;100.00;100191.75;1759322;79;21484;-87
2022/06/24 12:10:52;;;;;;;3.65;3.45;;;;;;;18.37;100.00;100195.38;1756013;81;21190;-88